Route Details

Aircraft Information
Group: North America Fleet
Types: B738, B752, B762, B763
Route Data
Distance: 2209nm
Duration: 6h 00m
Origin METAR: KLAL 181650Z 23006KT 10SM SCT039 SCT050 33/23 A2996 RMK LTG DSNT N AND NW
Dest. METAR: KSEA 181653Z VRB03KT 10SM BKN160 BKN200 25/16 A2994 RMK AO2 SLP141 VIRGA T02500161
Freight Data
(for Aug 18, 2022)
Load Factor:
62%
Manifested Cargo: 38,533lbs
Financial History
Total Freight: 49,005lbs
Average Load: 0lbs/flt
Fuel Used: 50,426lbs
Avg. Fuel Used: 0lbs/flt
Fuel Expense: $25,213
Avg. Fuel Expense: $0
Avg. Fuel Cost: $0/lbs
Total Gross Income: $132,804
Pilot Pay: $239
Total Expenses: $28,198
Total Revenue: $77,169
Average Revenue: $0

Capitol Logistics 355




KLAL
Lakeland Linder Regional Airport
Lakeland, Florida
KSEA
Seattle-Tacoma International Airport
Seattle, Washington

Activity Log

Date Flight Route Aircraft Duration
08/01/2022 CPX355 DCT NITTS DCT CTY DCT SZW DCT DEFUN J2 CEW J50 AEX J58 PNH DCT ALS DCT JNC J15 BOI DCT PDT CHINS4 B762 5h 45m